createdAt,value
2017-09-20T00:00:23.159Z,8.43
2017-09-20T00:02:50.629Z,9.27
2017-09-20T00:05:18.128Z,9.60
2017-09-20T00:07:45.600Z,9.00
2017-09-20T00:10:13.102Z,8.87
2017-09-20T00:12:40.577Z,8.80
2017-09-20T00:15:08.070Z,3.20
2017-09-20T00:17:35.533Z,3.20
2017-09-20T00:20:03.038Z,3.07
2017-09-20T00:22:30.528Z,2.97
2017-09-20T00:24:58.051Z,2.60
2017-09-20T00:27:25.544Z,3.20
2017-09-20T00:29:53.008Z,3.43
2017-09-20T00:32:20.498Z,4.57
2017-09-20T00:34:47.957Z,5.40
2017-09-20T00:37:15.504Z,5.70
2017-09-20T00:39:42.967Z,6.70
2017-09-20T00:42:10.430Z,8.40
2017-09-20T00:44:37.931Z,7.53
2017-09-20T00:47:05.389Z,7.20
2017-09-20T00:49:32.894Z,7.50
2017-09-20T00:52:00.381Z,7.47
2017-09-20T00:54:27.876Z,8.70
2017-09-20T00:56:55.342Z,6.87
2017-09-20T00:59:22.863Z,7.30
2017-09-20T01:01:50.356Z,7.37
2017-09-20T01:04:18.522Z,7.10
2017-09-20T01:06:46.017Z,6.40
2017-09-20T01:09:13.507Z,7.23
2017-09-20T01:11:41.005Z,6.20
2017-09-20T01:14:08.481Z,7.70
2017-09-20T01:16:36.013Z,8.90
2017-09-20T01:19:03.500Z,7.03
2017-09-20T01:21:42.759Z,7.70
2017-09-20T01:24:10.208Z,7.80
2017-09-20T01:26:37.718Z,9.33
2017-09-20T01:29:05.196Z,10.03
2017-09-20T01:31:32.677Z,8.70
2017-09-20T01:34:00.161Z,8.87
2017-09-20T01:36:27.645Z,8.83
2017-09-20T01:38:55.150Z,8.73
2017-09-20T01:41:22.766Z,9.40
2017-09-20T01:43:50.225Z,8.10
2017-09-20T01:46:17.680Z,8.03
2017-09-20T01:48:45.165Z,8.00
2017-09-20T01:51:12.629Z,8.10
2017-09-20T01:53:40.110Z,8.30
2017-09-20T01:56:07.571Z,8.03
2017-09-20T01:58:35.105Z,8.60
2017-09-20T02:01:02.569Z,7.97
2017-09-20T02:03:30.041Z,7.40
2017-09-20T02:05:57.577Z,8.03
2017-09-20T02:08:25.056Z,7.30
2017-09-20T02:10:52.577Z,7.73
2017-09-20T02:13:20.061Z,7.63
2017-09-20T02:15:47.541Z,8.13
2017-09-20T02:18:15.010Z,7.47
2017-09-20T02:20:42.512Z,7.50
2017-09-20T02:23:09.981Z,7.33
2017-09-20T02:25:37.475Z,7.07
2017-09-20T02:28:04.976Z,8.37
2017-09-20T02:30:32.473Z,9.90
2017-09-20T02:32:59.993Z,7.70
2017-09-20T02:35:27.481Z,7.80
2017-09-20T02:37:55.006Z,8.50
2017-09-20T02:40:22.490Z,8.13
2017-09-20T02:42:49.981Z,8.30
2017-09-20T02:45:17.444Z,7.87
2017-09-20T02:47:45.048Z,8.50
2017-09-20T02:50:12.515Z,8.33
2017-09-20T02:52:39.965Z,7.53
2017-09-20T02:55:07.460Z,8.30
2017-09-20T02:57:35.501Z,8.17
2017-09-20T03:00:03.005Z,8.13
2017-09-20T03:02:30.760Z,7.93
2017-09-20T03:04:58.260Z,8.30
2017-09-20T03:07:25.734Z,8.50
2017-09-20T03:09:53.213Z,8.67
2017-09-20T03:12:20.664Z,8.37
2017-09-20T03:14:49.073Z,8.63
2017-09-20T03:17:16.568Z,7.20
2017-09-20T03:19:44.069Z,7.63
2017-09-20T03:22:11.571Z,7.67
2017-09-20T03:24:39.966Z,8.13
2017-09-20T03:27:07.476Z,7.13
2017-09-20T03:29:34.975Z,7.20
2017-09-20T03:32:02.457Z,7.17
2017-09-20T03:34:29.915Z,6.93
2017-09-20T03:36:57.480Z,7.50
2017-09-20T03:39:24.954Z,7.67
2017-09-20T03:41:52.577Z,6.40
2017-09-20T03:44:20.037Z,6.43
2017-09-20T03:46:47.520Z,5.50
2017-09-20T03:49:14.999Z,4.43
2017-09-20T03:51:42.450Z,4.63
2017-09-20T03:54:09.963Z,4.00
2017-09-20T03:56:37.417Z,3.53
2017-09-20T03:59:04.913Z,4.10
2017-09-20T04:01:32.379Z,5.10
2017-09-20T04:03:59.873Z,5.00
2017-09-20T04:06:27.367Z,5.23
2017-09-20T04:08:54.827Z,4.93
2017-09-20T04:11:22.346Z,4.87
2017-09-20T04:13:49.804Z,4.80
2017-09-20T04:16:17.301Z,4.20
2017-09-20T04:18:44.748Z,4.40
2017-09-20T04:21:12.241Z,3.93
2017-09-20T04:23:39.696Z,4.03
2017-09-20T04:26:07.194Z,4.80
2017-09-20T04:28:34.658Z,5.23
2017-09-20T04:31:02.149Z,5.10
2017-09-20T04:33:29.637Z,5.10
2017-09-20T04:35:57.102Z,4.93
2017-09-20T04:38:24.602Z,5.10
2017-09-20T04:40:52.089Z,5.27
2017-09-20T04:43:19.591Z,5.03
2017-09-20T04:45:47.061Z,4.43
2017-09-20T04:48:14.593Z,4.20
2017-09-20T04:50:42.101Z,4.90
2017-09-20T04:53:09.556Z,4.87
2017-09-20T04:55:37.053Z,4.07
2017-09-20T04:58:04.505Z,4.80
2017-09-20T05:00:32.027Z,5.20
2017-09-20T05:02:59.462Z,4.20
2017-09-20T05:05:26.947Z,5.70
2017-09-20T05:07:54.442Z,5.30
2017-09-20T05:10:21.946Z,5.67
2017-09-20T05:12:49.408Z,4.50
2017-09-20T05:15:16.900Z,5.37
2017-09-20T05:17:44.382Z,5.60
2017-09-20T05:20:11.878Z,5.53
2017-09-20T05:22:39.356Z,4.80
2017-09-20T05:25:06.920Z,6.10
2017-09-20T05:27:34.447Z,5.80
2017-09-20T05:30:01.956Z,4.90
2017-09-20T05:32:29.461Z,4.67
2017-09-20T05:34:56.947Z,4.67
2017-09-20T05:37:24.423Z,4.90
2017-09-20T05:39:51.903Z,5.07
2017-09-20T05:42:19.401Z,4.20
2017-09-20T05:44:46.850Z,5.10
2017-09-20T05:47:14.354Z,5.30
2017-09-20T05:49:41.833Z,4.90
2017-09-20T05:52:09.319Z,5.10
2017-09-20T05:54:36.818Z,5.00
2017-09-20T05:57:04.390Z,5.17
2017-09-20T05:59:31.897Z,6.27
2017-09-20T06:01:59.397Z,5.10
2017-09-20T06:04:26.915Z,6.47
2017-09-20T06:06:54.584Z,6.47
2017-09-20T06:09:22.165Z,6.30
2017-09-20T06:11:49.644Z,6.20
2017-09-20T06:14:17.209Z,8.17
2017-09-20T06:16:44.679Z,7.53
2017-09-20T06:19:12.187Z,6.80
2017-09-20T06:21:39.663Z,6.80
2017-09-20T06:24:07.149Z,7.17
2017-09-20T06:26:34.649Z,6.67
2017-09-20T06:29:02.130Z,6.47
2017-09-20T06:31:29.620Z,6.53
2017-09-20T06:33:57.085Z,5.50
2017-09-20T06:36:24.617Z,5.50
2017-09-20T06:38:52.116Z,5.40
2017-09-20T06:41:19.625Z,5.47
2017-09-20T06:43:47.093Z,6.37
2017-09-20T06:46:14.566Z,5.13
2017-09-20T06:48:42.060Z,6.93
2017-09-20T06:51:09.516Z,6.33
2017-09-20T06:53:37.081Z,5.60
2017-09-20T06:56:04.589Z,6.90
2017-09-20T06:58:32.147Z,7.50
2017-09-20T07:00:59.601Z,5.80
2017-09-20T07:03:27.184Z,6.37
2017-09-20T07:05:54.645Z,6.17
2017-09-20T07:08:22.198Z,6.77
2017-09-20T07:10:49.658Z,6.73
2017-09-20T07:13:17.136Z,7.13
2017-09-20T07:15:44.697Z,6.97
2017-09-20T07:18:12.198Z,6.60
2017-09-20T07:20:39.704Z,7.80
2017-09-20T07:23:07.178Z,16.37
2017-09-20T07:25:34.682Z,7.20
2017-09-20T07:28:02.185Z,7.77
2017-09-20T07:30:29.677Z,8.50
2017-09-20T07:32:57.201Z,8.23
2017-09-20T07:35:24.663Z,7.20
2017-09-20T07:37:52.207Z,8.50
2017-09-20T07:40:19.689Z,8.40
2017-09-20T07:42:47.207Z,10.13
2017-09-20T07:45:14.666Z,10.27
2017-09-20T07:47:42.174Z,12.80
2017-09-20T07:50:09.667Z,10.20
2017-09-20T07:52:37.142Z,10.20
2017-09-20T07:55:05.650Z,10.03
2017-09-20T07:57:33.202Z,10.30
2017-09-20T08:00:00.721Z,10.57
2017-09-20T08:02:28.261Z,10.23
2017-09-20T08:04:55.793Z,11.67
2017-09-20T08:07:23.272Z,11.30
2017-09-20T08:09:50.780Z,11.57
2017-09-20T08:12:18.293Z,12.00
2017-09-20T08:14:46.167Z,12.83
2017-09-20T08:17:13.656Z,12.80
2017-09-20T08:19:41.162Z,11.77
2017-09-20T08:22:08.729Z,12.70
2017-09-20T08:24:36.249Z,13.60
2017-09-20T08:27:03.771Z,13.90
2017-09-20T08:29:31.314Z,12.63
2017-09-20T08:31:58.868Z,14.43
2017-09-20T08:34:26.362Z,15.17
2017-09-20T08:36:53.910Z,15.63
2017-09-20T08:39:21.408Z,16.03
2017-09-20T08:41:49.503Z,16.00
2017-09-20T08:44:17.014Z,16.57
2017-09-20T08:46:44.482Z,17.50
2017-09-20T08:49:11.978Z,16.53
2017-09-20T08:51:39.478Z,18.43
2017-09-20T08:54:06.981Z,17.57
2017-09-20T08:56:34.454Z,16.50
2017-09-20T08:59:01.960Z,16.60
2017-09-20T09:01:29.413Z,17.43
2017-09-20T09:03:56.910Z,16.30
2017-09-20T09:06:24.384Z,17.80
2017-09-20T09:08:51.884Z,17.10
2017-09-20T09:11:19.394Z,18.43
2017-09-20T09:13:46.869Z,16.73
2017-09-20T09:16:14.509Z,16.90
2017-09-20T09:18:41.973Z,15.77
2017-09-20T09:21:09.476Z,15.83
2017-09-20T09:23:36.945Z,16.50
2017-09-20T09:26:04.528Z,15.73
2017-09-20T09:28:32.022Z,15.90
2017-09-20T09:30:59.547Z,15.67
2017-09-20T09:33:27.026Z,15.00
2017-09-20T09:35:54.557Z,15.87
2017-09-20T09:38:22.105Z,15.13
2017-09-20T09:40:49.606Z,13.87
2017-09-20T09:43:17.134Z,15.30
2017-09-20T09:45:44.623Z,15.47
2017-09-20T09:48:12.169Z,16.67
2017-09-20T09:50:39.629Z,15.10
2017-09-20T09:53:07.180Z,15.63
2017-09-20T09:55:34.663Z,15.77
2017-09-20T09:58:02.230Z,15.60
2017-09-20T10:00:29.713Z,14.77
2017-09-20T10:02:57.229Z,15.33
2017-09-20T10:05:24.745Z,13.77
2017-09-20T10:07:52.229Z,15.50
2017-09-20T10:10:19.745Z,14.23
2017-09-20T10:12:47.248Z,13.50
2017-09-20T10:15:14.767Z,14.80
2017-09-20T10:17:42.273Z,13.60
2017-09-20T10:20:09.801Z,14.47
2017-09-20T10:22:37.282Z,13.53
2017-09-20T10:25:05.133Z,12.87
2017-09-20T10:27:32.675Z,16.00
2017-09-20T10:30:00.282Z,14.10
2017-09-20T10:32:27.786Z,13.13
2017-09-20T10:34:55.311Z,13.73
2017-09-20T10:37:23.084Z,13.47
2017-09-20T10:39:50.591Z,14.10
2017-09-20T10:42:18.783Z,13.83
2017-09-20T10:44:46.992Z,14.37
2017-09-20T10:47:14.500Z,13.97
2017-09-20T10:49:42.042Z,14.40
2017-09-20T10:52:09.578Z,14.83
2017-09-20T10:54:37.129Z,16.00
2017-09-20T10:57:04.679Z,14.90
2017-09-20T10:59:32.166Z,15.77
2017-09-20T11:01:59.669Z,15.73
2017-09-20T11:04:27.569Z,15.20
2017-09-20T11:06:55.080Z,15.03
2017-09-20T11:09:22.643Z,15.93
2017-09-20T11:11:50.135Z,15.97
2017-09-20T11:14:17.674Z,16.50
2017-09-20T11:16:45.153Z,16.20
2017-09-20T11:19:12.668Z,19.17
2017-09-20T11:21:40.145Z,18.90
2017-09-20T11:24:07.640Z,20.87
2017-09-20T11:26:35.128Z,19.40
2017-09-20T11:29:02.598Z,20.30
2017-09-20T11:31:30.169Z,20.80
2017-09-20T11:33:57.645Z,21.90
2017-09-20T11:36:25.129Z,20.27
2017-09-20T11:38:52.641Z,21.80
2017-09-20T11:41:20.974Z,23.47
2017-09-20T11:43:48.489Z,23.73
2017-09-20T11:46:16.026Z,21.67
2017-09-20T11:48:43.609Z,24.57
2017-09-20T11:51:11.705Z,26.40
2017-09-20T11:53:39.226Z,25.07
2017-09-20T11:56:06.702Z,23.97
2017-09-20T11:58:34.193Z,25.23
2017-09-20T12:01:01.740Z,24.67
2017-09-20T12:03:29.272Z,26.53
2017-09-20T12:05:56.730Z,25.50
2017-09-20T12:08:24.229Z,23.70
2017-09-20T12:10:51.691Z,24.67
2017-09-20T12:13:19.209Z,22.63
2017-09-20T12:15:46.695Z,22.33
2017-09-20T12:18:14.235Z,24.10
2017-09-20T12:20:41.786Z,22.77
2017-09-20T12:23:09.285Z,21.67
2017-09-20T12:25:36.825Z,30.40
2017-09-20T12:28:04.397Z,22.40
2017-09-20T12:30:32.814Z,23.13
2017-09-20T12:33:00.391Z,21.83
2017-09-20T12:35:27.896Z,22.97
2017-09-20T12:37:55.406Z,22.62
2017-09-20T12:40:22.893Z,21.30
2017-09-20T12:42:50.374Z,20.87
2017-09-20T12:45:18.059Z,20.43
2017-09-20T12:47:45.567Z,20.57
2017-09-20T12:50:13.090Z,20.87
2017-09-20T12:52:40.596Z,20.43
2017-09-20T12:55:08.078Z,20.53
2017-09-20T12:57:35.588Z,21.00
2017-09-20T13:00:03.130Z,19.57
2017-09-20T13:02:30.619Z,20.77
2017-09-20T13:04:58.148Z,19.97
2017-09-20T13:07:25.733Z,19.63
2017-09-20T13:09:53.309Z,21.83
2017-09-20T13:12:20.813Z,20.97
2017-09-20T13:14:48.315Z,18.93
2017-09-20T13:17:15.835Z,19.27
2017-09-20T13:19:43.330Z,19.10
2017-09-20T13:22:10.824Z,17.93
2017-09-20T13:24:38.402Z,19.60
2017-09-20T13:27:05.893Z,21.77
2017-09-20T13:29:33.530Z,21.40
2017-09-20T13:32:01.049Z,20.73
2017-09-20T13:34:28.606Z,20.93
2017-09-20T13:36:56.113Z,21.57
2017-09-20T13:39:23.655Z,20.10
2017-09-20T13:41:51.233Z,23.10
2017-09-20T13:44:18.741Z,24.70
2017-09-20T13:46:46.245Z,21.10
2017-09-20T13:49:13.733Z,21.17
2017-09-20T13:51:41.265Z,20.97
2017-09-20T13:54:08.769Z,18.83
2017-09-20T13:56:36.359Z,17.60
2017-09-20T13:59:03.849Z,18.53
2017-09-20T14:01:31.351Z,20.60
2017-09-20T14:04:00.033Z,19.40
2017-09-20T14:06:27.581Z,20.53
2017-09-20T14:08:55.134Z,19.33
2017-09-20T14:11:23.598Z,18.47
2017-09-20T14:13:51.110Z,22.37
2017-09-20T14:16:19.650Z,17.30
2017-09-20T14:18:47.209Z,16.90
2017-09-20T14:21:14.785Z,17.00
2017-09-20T14:23:42.351Z,16.80
2017-09-20T14:26:09.848Z,17.10
2017-09-20T14:28:37.412Z,14.77
2017-09-20T14:31:04.968Z,14.03
2017-09-20T14:33:32.433Z,12.67
2017-09-20T14:35:59.935Z,12.20
2017-09-20T14:38:27.425Z,13.70
2017-09-20T14:40:54.935Z,14.07
2017-09-20T14:43:22.411Z,12.40
2017-09-20T14:45:49.919Z,13.00
2017-09-20T14:48:17.385Z,13.53
2017-09-20T14:50:44.859Z,13.30
2017-09-20T14:53:12.394Z,12.93
2017-09-20T14:55:40.427Z,13.40
2017-09-20T14:58:07.999Z,12.00
2017-09-20T15:00:35.512Z,12.37
2017-09-20T15:03:03.041Z,12.20
2017-09-20T15:05:30.570Z,12.07
2017-09-20T15:07:58.074Z,12.67
2017-09-20T15:10:25.625Z,12.27
2017-09-20T15:12:53.163Z,12.93
2017-09-20T15:15:20.675Z,11.47
2017-09-20T15:17:48.152Z,12.10
2017-09-20T15:20:15.662Z,11.03
2017-09-20T15:22:43.154Z,11.67
2017-09-20T15:25:10.650Z,10.67
2017-09-20T15:27:38.150Z,12.03
2017-09-20T15:30:05.691Z,11.17
2017-09-20T15:32:33.180Z,11.07
2017-09-20T15:35:00.636Z,10.30
2017-09-20T15:37:28.138Z,11.87
2017-09-20T15:39:55.606Z,6.83
2017-09-20T15:42:23.153Z,9.43
2017-09-20T15:44:50.590Z,10.67
2017-09-20T15:47:18.097Z,9.60
2017-09-20T15:49:45.569Z,10.10
2017-09-20T15:52:13.073Z,10.20
2017-09-20T15:54:41.911Z,10.70
2017-09-20T15:57:09.736Z,9.50
2017-09-20T15:59:37.233Z,10.03
2017-09-20T16:02:04.693Z,9.60
2017-09-20T16:04:32.756Z,9.53
2017-09-20T16:07:00.240Z,10.60
2017-09-20T16:09:27.792Z,10.87
2017-09-20T16:11:55.266Z,9.87
2017-09-20T16:14:22.805Z,11.33
2017-09-20T16:16:50.276Z,10.30
2017-09-20T16:19:17.823Z,9.70
2017-09-20T16:21:45.311Z,9.80
2017-09-20T16:24:12.795Z,11.63
2017-09-20T16:26:40.288Z,10.40
2017-09-20T16:29:07.765Z,11.90
2017-09-20T16:31:36.116Z,11.00
2017-09-20T16:34:03.596Z,9.60
2017-09-20T16:36:31.075Z,9.10
2017-09-20T16:38:59.394Z,10.13
2017-09-20T16:41:26.889Z,8.97
2017-09-20T16:43:54.369Z,9.33
2017-09-20T16:46:21.858Z,9.60
2017-09-20T16:48:49.353Z,9.70
2017-09-20T16:51:16.826Z,9.67
2017-09-20T16:53:44.321Z,9.13
2017-09-20T16:56:11.813Z,17.13
2017-09-20T16:58:39.369Z,10.03
2017-09-20T17:01:07.414Z,10.67
2017-09-20T17:03:34.881Z,10.17
2017-09-20T17:06:02.401Z,10.00
2017-09-20T17:08:29.923Z,10.87
2017-09-20T17:10:57.441Z,8.90
2017-09-20T17:13:24.937Z,10.07
2017-09-20T17:15:52.455Z,10.43
2017-09-20T17:18:19.950Z,9.20
2017-09-20T17:20:47.424Z,9.10
2017-09-20T17:23:14.897Z,9.80
2017-09-20T17:25:42.353Z,9.10
2017-09-20T17:28:09.840Z,9.20
2017-09-20T17:30:37.301Z,8.97
2017-09-20T17:33:04.809Z,9.00
2017-09-20T17:35:32.341Z,9.37
2017-09-20T17:37:59.819Z,9.90
2017-09-20T17:40:27.297Z,9.30
2017-09-20T17:42:54.815Z,9.60
2017-09-20T17:45:22.300Z,9.93
2017-09-20T17:47:49.821Z,10.80
2017-09-20T17:50:17.308Z,10.10
2017-09-20T17:52:44.789Z,9.43
2017-09-20T17:55:14.001Z,9.40
2017-09-20T17:57:41.526Z,10.53
2017-09-20T18:00:09.002Z,10.70
2017-09-20T18:02:36.554Z,10.50
2017-09-20T18:05:04.022Z,10.37
2017-09-20T18:07:31.515Z,10.20
2017-09-20T18:09:59.004Z,11.03
2017-09-20T18:12:26.464Z,10.80
2017-09-20T18:14:53.970Z,10.00
2017-09-20T18:17:21.586Z,10.37
2017-09-20T18:19:49.078Z,9.33
2017-09-20T18:22:16.566Z,10.17
2017-09-20T18:24:44.099Z,10.90
2017-09-20T18:27:11.565Z,10.40
2017-09-20T18:29:39.084Z,10.50
2017-09-20T18:32:06.554Z,10.30
2017-09-20T18:34:34.064Z,11.20
2017-09-20T18:37:01.546Z,11.60
2017-09-20T18:39:29.043Z,11.70
2017-09-20T18:41:56.693Z,12.00
2017-09-20T18:44:24.173Z,12.33
2017-09-20T18:46:51.642Z,13.50
2017-09-20T18:49:19.168Z,11.07
2017-09-20T18:51:46.710Z,11.33
2017-09-20T18:54:14.197Z,11.40
2017-09-20T18:56:41.734Z,11.40
2017-09-20T18:59:09.226Z,10.60
2017-09-20T19:01:36.788Z,9.90
2017-09-20T19:04:04.276Z,10.30
2017-09-20T19:06:31.789Z,9.60
2017-09-20T19:08:59.290Z,9.57
2017-09-20T19:11:26.789Z,10.87
2017-09-20T19:13:54.304Z,10.87
2017-09-20T19:16:22.153Z,9.90
2017-09-20T19:18:49.709Z,11.03
2017-09-20T19:21:17.211Z,10.37
2017-09-20T19:23:44.721Z,10.13
2017-09-20T19:26:12.286Z,10.20
2017-09-20T19:28:39.864Z,10.57
2017-09-20T19:31:08.290Z,10.20
2017-09-20T19:33:35.802Z,10.90
2017-09-20T19:36:03.357Z,12.23
2017-09-20T19:38:31.186Z,10.30
2017-09-20T19:40:58.706Z,8.83
2017-09-20T19:43:26.180Z,10.00
2017-09-20T19:45:53.692Z,9.50
2017-09-20T19:48:21.171Z,8.43
2017-09-20T19:50:48.687Z,9.00
2017-09-20T19:53:16.255Z,10.00
2017-09-20T19:55:43.772Z,9.80
2017-09-20T19:58:11.318Z,8.40
2017-09-20T20:00:38.807Z,9.10
2017-09-20T20:03:06.326Z,11.67
2017-09-20T20:05:33.800Z,9.20
2017-09-20T20:08:01.306Z,9.80
2017-09-20T20:10:28.787Z,10.83
2017-09-20T20:12:56.399Z,10.40
2017-09-20T20:15:23.900Z,9.73
2017-09-20T20:17:51.425Z,13.50
2017-09-20T20:20:18.924Z,10.90
2017-09-20T20:22:46.445Z,11.83
2017-09-20T20:25:13.946Z,10.17
2017-09-20T20:27:41.464Z,9.60
2017-09-20T20:30:09.074Z,10.37
2017-09-20T20:32:36.609Z,10.50
2017-09-20T20:35:04.132Z,9.47
2017-09-20T20:37:31.629Z,9.20
2017-09-20T20:39:59.139Z,9.30
2017-09-20T20:42:26.630Z,8.50
2017-09-20T20:44:54.080Z,8.67
2017-09-20T20:47:21.573Z,8.23
2017-09-20T20:49:49.049Z,9.23
2017-09-20T20:52:16.611Z,8.90
2017-09-20T20:54:44.423Z,9.50
2017-09-20T20:57:11.883Z,8.07
2017-09-20T20:59:39.390Z,8.20
2017-09-20T21:02:06.902Z,8.30
2017-09-20T21:04:34.401Z,8.37
2017-09-20T21:07:01.875Z,9.63
2017-09-20T21:09:29.408Z,9.60
2017-09-20T21:11:56.901Z,8.67
2017-09-20T21:14:24.406Z,8.10
2017-09-20T21:16:51.893Z,8.90
2017-09-20T21:19:19.402Z,8.83
2017-09-20T21:21:46.873Z,8.80
2017-09-20T21:24:14.357Z,8.70
2017-09-20T21:26:41.836Z,9.20
2017-09-20T21:29:09.287Z,8.60
2017-09-20T21:31:36.777Z,8.80
2017-09-20T21:34:04.228Z,8.80
2017-09-20T21:36:31.725Z,8.60
2017-09-20T21:38:59.242Z,8.10
2017-09-20T21:41:26.710Z,8.30
2017-09-20T21:43:54.203Z,8.33
2017-09-20T21:46:21.655Z,8.33
2017-09-20T21:48:49.209Z,8.10
2017-09-20T21:51:16.701Z,7.90
2017-09-20T21:53:44.201Z,7.47
2017-09-20T21:56:11.656Z,7.43
2017-09-20T21:58:39.148Z,8.80
2017-09-20T22:01:06.610Z,7.60
2017-09-20T22:03:34.098Z,8.00
2017-09-20T22:06:01.562Z,7.63
2017-09-20T22:08:29.036Z,7.53
2017-09-20T22:10:56.513Z,6.90
2017-09-20T22:13:24.057Z,7.00
2017-09-20T22:16:03.252Z,7.60
2017-09-20T22:18:42.393Z,6.40
2017-09-20T22:21:21.537Z,7.53
2017-09-20T22:24:00.891Z,7.53
2017-09-20T22:26:40.057Z,7.60
2017-09-20T22:29:07.510Z,7.13
2017-09-20T22:31:35.025Z,7.23
2017-09-20T22:34:02.490Z,7.20
2017-09-20T22:36:30.081Z,7.40
2017-09-20T22:38:57.542Z,6.67
2017-09-20T22:41:25.016Z,7.60
2017-09-20T22:43:52.526Z,7.40
2017-09-20T22:46:19.969Z,7.17
2017-09-20T22:48:47.480Z,8.10
2017-09-20T22:51:14.961Z,7.33
2017-09-20T22:53:42.886Z,7.00
2017-09-20T22:56:10.337Z,7.30
2017-09-20T22:58:37.834Z,7.27
2017-09-20T23:01:05.302Z,7.47
2017-09-20T23:03:32.772Z,7.80
2017-09-20T23:06:00.258Z,7.17
2017-09-20T23:08:27.742Z,6.80
2017-09-20T23:10:55.212Z,7.10
2017-09-20T23:13:22.669Z,6.77
2017-09-20T23:15:50.136Z,7.10
2017-09-20T23:18:17.606Z,7.30
2017-09-20T23:20:45.105Z,7.63
2017-09-20T23:23:12.570Z,7.40
2017-09-20T23:25:40.060Z,7.50
2017-09-20T23:28:07.535Z,7.93
2017-09-20T23:30:34.994Z,8.07
2017-09-20T23:33:02.498Z,7.80
2017-09-20T23:35:29.976Z,8.17
2017-09-20T23:37:57.461Z,7.57
2017-09-20T23:40:24.921Z,8.10
2017-09-20T23:42:52.447Z,7.83
2017-09-20T23:45:19.908Z,8.23
2017-09-20T23:47:47.364Z,7.77
2017-09-20T23:50:14.849Z,8.10
2017-09-20T23:52:42.314Z,7.10
2017-09-20T23:55:09.796Z,7.13
2017-09-20T23:57:37.244Z,6.90
